Small Point, Maine
Current Conditions -  °F | °C
As of 7:53 AM on Sunday 28 Dec 2014 (Local Time) from KIWI Reporting Station
Light Rain Light Rain  
Wind Chill: 39°   Ceiling: 5500
Heat Index: 43°   Visibility: 3mi
Dew Point: 41°   Wind: 6mph
Humidity: 93%   Direction: 220°SW
Pressure: 29.76"   Gusts: NA
Location:  43.73°N, 69.84°W
Report Text: KIWI 281253Z AUTO 22005KT 3SM -RA BR OVC055 06/05 A2976 RMK AO2 SLP077 P0010 T00610050
Loading
Personal Weather Stations






























Interactive Weather Map New forecast layout! Learn more

10-Day Weather Forecast

Advertisements
Track Severe Weather on mobile